sensor_id;sensor_type;location;lat;lon;timestamp;temperature;humidity
17146;DHT22;8688;54.444;18.444;2024-03-23T00:52:38;6.90;99.90
17146;DHT22;8688;54.444;18.444;2024-03-23T00:55:08;6.90;99.90
17146;DHT22;8688;54.444;18.444;2024-03-23T00:57:36;6.90;99.90
17146;DHT22;8688;54.444;18.444;2024-03-23T01:00:02;6.90;99.90
17146;DHT22;8688;54.444;18.444;2024-03-23T01:02:32;6.80;99.90
17146;DHT22;8688;54.444;18.444;2024-03-23T01:04:58;6.90;99.90
17146;DHT22;8688;54.444;18.444;2024-03-23T01:07:26;6.80;99.90
17146;DHT22;8688;54.444;18.444;2024-03-23T01:09:57;6.80;1.00
17146;DHT22;8688;54.444;18.444;2024-03-23T01:12:25;6.80;99.90
17146;DHT22;8688;54.444;18.444;2024-03-23T01:14:52;6.80;99.90
17146;DHT22;8688;54.444;18.444;2024-03-23T01:17:19;6.80;99.90
17146;DHT22;8688;54.444;18.444;2024-03-23T01:19:46;6.80;1.00
17146;DHT22;8688;54.444;18.444;2024-03-23T01:22:16;6.80;99.90
17146;DHT22;8688;54.444;18.444;2024-03-23T01:24:46;6.70;1.00
17146;DHT22;8688;54.444;18.444;2024-03-23T01:27:18;6.70;1.00
17146;DHT22;8688;54.444;18.444;2024-03-23T01:29:45;6.70;1.00
17146;DHT22;8688;54.444;18.444;2024-03-23T01:32:14;6.70;1.00
17146;DHT22;8688;54.444;18.444;2024-03-23T01:34:40;6.70;1.00
17146;DHT22;8688;54.444;18.444;2024-03-23T01:37:08;6.70;1.00
17146;DHT22;8688;54.444;18.444;2024-03-23T01:39:35;6.70;1.00
17146;DHT22;8688;54.444;18.444;2024-03-23T01:42:03;6.60;1.00
17146;DHT22;8688;54.444;18.444;2024-03-23T01:44:33;6.60;1.00
17146;DHT22;8688;54.444;18.444;2024-03-23T01:46:59;6.60;1.00
17146;DHT22;8688;54.444;18.444;2024-03-23T01:49:27;6.60;1.00
17146;DHT22;8688;54.444;18.444;2024-03-23T01:51:54;6.60;1.00
17146;DHT22;8688;54.444;18.444;2024-03-23T01:54:22;6.60;1.00
17146;DHT22;8688;54.444;18.444;2024-03-23T01:56:49;6.60;1.00
17146;DHT22;8688;54.444;18.444;2024-03-23T01:59:17;6.60;1.00
17146;DHT22;8688;54.444;18.444;2024-03-23T02:01:46;6.60;1.00
17146;DHT22;8688;54.444;18.444;2024-03-23T02:04:14;6.60;1.00
17146;DHT22;8688;54.444;18.444;2024-03-23T02:06:40;6.60;1.00
17146;DHT22;8688;54.444;18.444;2024-03-23T02:09:08;6.50;1.00
17146;DHT22;8688;54.444;18.444;2024-03-23T02:11:34;6.50;1.00
17146;DHT22;8688;54.444;18.444;2024-03-23T02:14:04;6.50;1.00
17146;DHT22;8688;54.444;18.444;2024-03-23T02:16:31;6.50;1.00
17146;DHT22;8688;54.444;18.444;2024-03-23T02:19:04;6.50;1.00
17146;DHT22;8688;54.444;18.444;2024-03-23T02:21:30;6.50;1.00
17146;DHT22;8688;54.444;18.444;2024-03-23T02:24:01;6.50;1.00
17146;DHT22;8688;54.444;18.444;2024-03-23T02:26:27;6.50;1.00
17146;DHT22;8688;54.444;18.444;2024-03-23T02:28:55;6.50;1.00
17146;DHT22;8688;54.444;18.444;2024-03-23T02:31:22;6.40;1.00
17146;DHT22;8688;54.444;18.444;2024-03-23T02:33:51;6.50;1.00
17146;DHT22;8688;54.444;18.444;2024-03-23T02:36:18;6.40;41.90
17146;DHT22;8688;54.444;18.444;2024-03-23T02:38:47;6.40;1.00
17146;DHT22;8688;54.444;18.444;2024-03-23T02:41:15;6.40;64.50
17146;DHT22;8688;54.444;18.444;2024-03-23T02:43:49;6.40;99.90
17146;DHT22;8688;54.444;18.444;2024-03-23T02:46:16;6.40;99.90
17146;DHT22;8688;54.444;18.444;2024-03-23T02:48:49;6.30;99.90
17146;DHT22;8688;54.444;18.444;2024-03-23T02:51:17;6.30;99.90
17146;DHT22;8688;54.444;18.444;2024-03-23T02:53:44;6.30;99.90
17146;DHT22;8688;54.444;18.444;2024-03-23T02:56:21;6.30;99.90
17146;DHT22;8688;54.444;18.444;2024-03-23T02:58:51;6.30;99.90
17146;DHT22;8688;54.444;18.444;2024-03-23T03:01:23;6.30;99.90
17146;DHT22;8688;54.444;18.444;2024-03-23T03:03:53;6.30;99.90
17146;DHT22;8688;54.444;18.444;2024-03-23T03:06:25;6.30;99.90
17146;DHT22;8688;54.444;18.444;2024-03-23T03:08:58;6.30;99.90
17146;DHT22;8688;54.444;18.444;2024-03-23T03:11:27;6.30;99.90
17146;DHT22;8688;54.444;18.444;2024-03-23T03:14:00;6.20;99.90
17146;DHT22;8688;54.444;18.444;2024-03-23T03:16:33;6.20;1.00
17146;DHT22;8688;54.444;18.444;2024-03-23T03:19:10;6.20;1.00
17146;DHT22;8688;54.444;18.444;2024-03-23T03:21:37;6.20;1.00
17146;DHT22;8688;54.444;18.444;2024-03-23T03:24:07;6.20;1.00
17146;DHT22;8688;54.444;18.444;2024-03-23T03:26:35;6.20;1.00
17146;DHT22;8688;54.444;18.444;2024-03-23T03:29:06;6.20;1.00
17146;DHT22;8688;54.444;18.444;2024-03-23T03:31:32;6.20;1.00
17146;DHT22;8688;54.444;18.444;2024-03-23T03:34:06;6.20;1.00
17146;DHT22;8688;54.444;18.444;2024-03-23T03:36:33;6.20;1.00
17146;DHT22;8688;54.444;18.444;2024-03-23T03:39:01;6.20;1.00
17146;DHT22;8688;54.444;18.444;2024-03-23T03:41:30;6.20;1.00
17146;DHT22;8688;54.444;18.444;2024-03-23T03:44:00;6.20;1.00
17146;DHT22;8688;54.444;18.444;2024-03-23T03:46:28;6.20;1.00
17146;DHT22;8688;54.444;18.444;2024-03-23T03:48:56;6.20;1.00
17146;DHT22;8688;54.444;18.444;2024-03-23T03:51:25;6.20;1.00
17146;DHT22;8688;54.444;18.444;2024-03-23T03:53:53;6.20;55.10
17146;DHT22;8688;54.444;18.444;2024-03-23T03:56:20;6.10;18.70
17146;DHT22;8688;54.444;18.444;2024-03-23T03:58:49;6.10;1.00
17146;DHT22;8688;54.444;18.444;2024-03-23T04:01:23;6.10;93.90
17146;DHT22;8688;54.444;18.444;2024-03-23T04:03:51;6.00;99.90
17146;DHT22;8688;54.444;18.444;2024-03-23T04:06:21;6.00;99.90
17146;DHT22;8688;54.444;18.444;2024-03-23T04:09:07;6.00;99.90
17146;DHT22;8688;54.444;18.444;2024-03-23T04:11:35;6.00;1.00
17146;DHT22;8688;54.444;18.444;2024-03-23T04:14:02;5.90;1.00
17146;DHT22;8688;54.444;18.444;2024-03-23T04:16:36;5.90;1.00
17146;DHT22;8688;54.444;18.444;2024-03-23T04:19:02;5.90;1.00
17146;DHT22;8688;54.444;18.444;2024-03-23T04:21:40;5.90;1.00
17146;DHT22;8688;54.444;18.444;2024-03-23T04:24:08;5.90;99.90
17146;DHT22;8688;54.444;18.444;2024-03-23T04:26:43;5.90;99.90
17146;DHT22;8688;54.444;18.444;2024-03-23T04:29:10;5.90;1.00
17146;DHT22;8688;54.444;18.444;2024-03-23T04:31:40;5.90;1.00
17146;DHT22;8688;54.444;18.444;2024-03-23T04:34:06;5.90;1.00
17146;DHT22;8688;54.444;18.444;2024-03-23T04:36:34;5.90;1.00
17146;DHT22;8688;54.444;18.444;2024-03-23T04:39:03;5.90;1.00
17146;DHT22;8688;54.444;18.444;2024-03-23T04:41:35;6.00;1.00
17146;DHT22;8688;54.444;18.444;2024-03-23T04:44:07;6.00;1.00
17146;DHT22;8688;54.444;18.444;2024-03-23T04:46:40;6.00;16.20
17146;DHT22;8688;54.444;18.444;2024-03-23T04:49:12;6.00;99.90
17146;DHT22;8688;54.444;18.444;2024-03-23T04:51:44;6.00;99.90
17146;DHT22;8688;54.444;18.444;2024-03-23T04:54:21;6.10;99.90
17146;DHT22;8688;54.444;18.444;2024-03-23T04:56:53;6.10;99.90
17146;DHT22;8688;54.444;18.444;2024-03-23T04:59:22;6.10;99.90
17146;DHT22;8688;54.444;18.444;2024-03-23T05:01:57;6.10;99.90
17146;DHT22;8688;54.444;18.444;2024-03-23T05:04:28;6.10;99.90
17146;DHT22;8688;54.444;18.444;2024-03-23T05:07:19;6.10;99.90
17146;DHT22;8688;54.444;18.444;2024-03-23T05:09:51;6.10;99.90
17146;DHT22;8688;54.444;18.444;2024-03-23T05:12:24;6.10;99.90
17146;DHT22;8688;54.444;18.444;2024-03-23T05:14:52;6.10;99.90
17146;DHT22;8688;54.444;18.444;2024-03-23T05:17:28;6.20;99.90
17146;DHT22;8688;54.444;18.444;2024-03-23T05:19:55;6.20;99.90
17146;DHT22;8688;54.444;18.444;2024-03-23T05:22:25;6.20;99.90
17146;DHT22;8688;54.444;18.444;2024-03-23T05:24:53;6.20;99.90
17146;DHT22;8688;54.444;18.444;2024-03-23T05:27:25;6.20;99.90
17146;DHT22;8688;54.444;18.444;2024-03-23T05:29:53;6.30;99.90
17146;DHT22;8688;54.444;18.444;2024-03-23T05:32:20;6.30;99.90
17146;DHT22;8688;54.444;18.444;2024-03-23T05:34:55;6.30;99.90
17146;DHT22;8688;54.444;18.444;2024-03-23T05:37:22;6.30;99.90
17146;DHT22;8688;54.444;18.444;2024-03-23T05:39:55;6.40;1.00
17146;DHT22;8688;54.444;18.444;2024-03-23T05:42:21;6.40;1.00
17146;DHT22;8688;54.444;18.444;2024-03-23T05:45:01;6.40;1.00
17146;DHT22;8688;54.444;18.444;2024-03-23T05:47:45;6.40;1.00
17146;DHT22;8688;54.444;18.444;2024-03-23T05:50:17;6.50;99.90
17146;DHT22;8688;54.444;18.444;2024-03-23T05:52:44;6.50;1.00
17146;DHT22;8688;54.444;18.444;2024-03-23T05:55:11;6.50;1.00
17146;DHT22;8688;54.444;18.444;2024-03-23T05:57:38;6.50;1.00
17146;DHT22;8688;54.444;18.444;2024-03-23T06:00:07;6.50;1.00
17146;DHT22;8688;54.444;18.444;2024-03-23T06:02:42;6.60;1.00
17146;DHT22;8688;54.444;18.444;2024-03-23T06:05:12;6.60;1.00
17146;DHT22;8688;54.444;18.444;2024-03-23T06:07:40;6.60;1.00
17146;DHT22;8688;54.444;18.444;2024-03-23T06:10:11;6.60;1.00
17146;DHT22;8688;54.444;18.444;2024-03-23T06:12:38;6.60;99.90
17146;DHT22;8688;54.444;18.444;2024-03-23T06:15:12;6.70;1.00
17146;DHT22;8688;54.444;18.444;2024-03-23T06:17:41;6.70;1.00
17146;DHT22;8688;54.444;18.444;2024-03-23T06:20:10;6.70;1.00
17146;DHT22;8688;54.444;18.444;2024-03-23T06:22:42;6.70;1.00
17146;DHT22;8688;54.444;18.444;2024-03-23T06:25:11;6.70;99.90
17146;DHT22;8688;54.444;18.444;2024-03-23T06:27:41;6.70;99.90
17146;DHT22;8688;54.444;18.444;2024-03-23T06:30:12;6.80;99.90
17146;DHT22;8688;54.444;18.444;2024-03-23T06:32:41;6.80;99.90
17146;DHT22;8688;54.444;18.444;2024-03-23T06:35:10;6.80;1.00
17146;DHT22;8688;54.444;18.444;2024-03-23T06:37:37;6.70;1.00
17146;DHT22;8688;54.444;18.444;2024-03-23T06:40:11;6.80;1.00
17146;DHT22;8688;54.444;18.444;2024-03-23T06:42:38;6.80;1.00
17146;DHT22;8688;54.444;18.444;2024-03-23T06:45:11;6.80;1.00
17146;DHT22;8688;54.444;18.444;2024-03-23T06:47:38;6.80;1.00
17146;DHT22;8688;54.444;18.444;2024-03-23T06:50:07;6.80;1.00
17146;DHT22;8688;54.444;18.444;2024-03-23T06:52:36;6.80;1.00
17146;DHT22;8688;54.444;18.444;2024-03-23T06:55:03;6.80;1.00
17146;DHT22;8688;54.444;18.444;2024-03-23T06:57:33;6.80;99.90
17146;DHT22;8688;54.444;18.444;2024-03-23T07:00:00;6.80;1.00
17146;DHT22;8688;54.444;18.444;2024-03-23T07:02:28;6.80;99.90
17146;DHT22;8688;54.444;18.444;2024-03-23T07:04:55;6.80;1.00
17146;DHT22;8688;54.444;18.444;2024-03-23T07:07:23;6.80;1.00
17146;DHT22;8688;54.444;18.444;2024-03-23T07:09:51;6.90;38.30
17146;DHT22;8688;54.444;18.444;2024-03-23T07:12:18;6.90;1.00
17146;DHT22;8688;54.444;18.444;2024-03-23T07:14:47;6.90;1.00
17146;DHT22;8688;54.444;18.444;2024-03-23T07:17:15;6.80;1.00
17146;DHT22;8688;54.444;18.444;2024-03-23T07:19:42;6.90;1.00
17146;DHT22;8688;54.444;18.444;2024-03-23T07:22:10;6.90;1.00
17146;DHT22;8688;54.444;18.444;2024-03-23T07:24:36;7.00;1.00
17146;DHT22;8688;54.444;18.444;2024-03-23T07:27:06;7.00;99.90
17146;DHT22;8688;54.444;18.444;2024-03-23T07:29:36;7.10;99.90
17146;DHT22;8688;54.444;18.444;2024-03-23T07:32:11;7.10;99.90
17146;DHT22;8688;54.444;18.444;2024-03-23T07:34:41;7.10;99.90
17146;DHT22;8688;54.444;18.444;2024-03-23T07:37:15;7.20;99.90
17146;DHT22;8688;54.444;18.444;2024-03-23T07:39:43;7.30;99.90
17146;DHT22;8688;54.444;18.444;2024-03-23T07:42:12;7.30;99.90
17146;DHT22;8688;54.444;18.444;2024-03-23T07:44:39;7.30;99.90
17146;DHT22;8688;54.444;18.444;2024-03-23T07:47:11;7.30;1.00
17146;DHT22;8688;54.444;18.444;2024-03-23T07:49:38;7.30;1.00
17146;DHT22;8688;54.444;18.444;2024-03-23T07:52:06;7.30;99.90
17146;DHT22;8688;54.444;18.444;2024-03-23T07:54:34;7.30;99.90
17146;DHT22;8688;54.444;18.444;2024-03-23T07:57:01;7.30;99.90
17146;DHT22;8688;54.444;18.444;2024-03-23T07:59:28;7.30;99.90
17146;DHT22;8688;54.444;18.444;2024-03-23T08:01:58;7.30;99.90
17146;DHT22;8688;54.444;18.444;2024-03-23T08:04:28;7.40;99.90
17146;DHT22;8688;54.444;18.444;2024-03-23T08:06:56;7.40;99.90
17146;DHT22;8688;54.444;18.444;2024-03-23T08:09:23;7.50;99.90
17146;DHT22;8688;54.444;18.444;2024-03-23T08:11:51;7.50;99.90
17146;DHT22;8688;54.444;18.444;2024-03-23T08:14:18;7.60;99.90
17146;DHT22;8688;54.444;18.444;2024-03-23T08:16:46;7.60;18.40
17146;DHT22;8688;54.444;18.444;2024-03-23T08:19:15;7.60;1.00
17146;DHT22;8688;54.444;18.444;2024-03-23T08:21:44;7.60;1.00
17146;DHT22;8688;54.444;18.444;2024-03-23T08:24:11;7.70;1.00
17146;DHT22;8688;54.444;18.444;2024-03-23T08:26:38;7.70;1.00
17146;DHT22;8688;54.444;18.444;2024-03-23T08:29:05;7.70;1.00
17146;DHT22;8688;54.444;18.444;2024-03-23T08:31:33;7.80;1.00
17146;DHT22;8688;54.444;18.444;2024-03-23T08:34:00;7.80;51.90
17146;DHT22;8688;54.444;18.444;2024-03-23T08:36:28;7.80;1.00
17146;DHT22;8688;54.444;18.444;2024-03-23T08:38:56;7.80;1.00
17146;DHT22;8688;54.444;18.444;2024-03-23T08:41:24;7.80;1.00
17146;DHT22;8688;54.444;18.444;2024-03-23T08:43:54;7.80;99.90
17146;DHT22;8688;54.444;18.444;2024-03-23T08:46:22;8.00;1.00
17146;DHT22;8688;54.444;18.444;2024-03-23T08:48:49;8.10;1.00
17146;DHT22;8688;54.444;18.444;2024-03-23T08:51:18;8.20;95.50
17146;DHT22;8688;54.444;18.444;2024-03-23T08:53:45;8.40;27.20
17146;DHT22;8688;54.444;18.444;2024-03-23T08:56:15;8.50;29.20
17146;DHT22;8688;54.444;18.444;2024-03-23T08:58:42;8.50;1.00
17146;DHT22;8688;54.444;18.444;2024-03-23T09:01:11;8.50;1.00
17146;DHT22;8688;54.444;18.444;2024-03-23T09:03:39;8.40;1.00
17146;DHT22;8688;54.444;18.444;2024-03-23T09:06:07;8.20;86.70
17146;DHT22;8688;54.444;18.444;2024-03-23T09:08:34;8.20;99.90
17146;DHT22;8688;54.444;18.444;2024-03-23T09:11:04;8.10;1.00
17146;DHT22;8688;54.444;18.444;2024-03-23T09:13:33;8.10;1.00
17146;DHT22;8688;54.444;18.444;2024-03-23T09:16:02;8.00;1.00
17146;DHT22;8688;54.444;18.444;2024-03-23T09:18:32;8.00;1.00
17146;DHT22;8688;54.444;18.444;2024-03-23T09:21:01;7.90;32.10
17146;DHT22;8688;54.444;18.444;2024-03-23T09:23:27;7.90;1.00
17146;DHT22;8688;54.444;18.444;2024-03-23T09:25:56;7.90;1.00
17146;DHT22;8688;54.444;18.444;2024-03-23T09:28:23;7.80;1.00
17146;DHT22;8688;54.444;18.444;2024-03-23T09:30:52;7.80;1.00
17146;DHT22;8688;54.444;18.444;2024-03-23T09:33:19;7.90;1.00
17146;DHT22;8688;54.444;18.444;2024-03-23T09:35:47;7.90;1.00
17146;DHT22;8688;54.444;18.444;2024-03-23T09:38:14;7.90;1.00
17146;DHT22;8688;54.444;18.444;2024-03-23T09:40:43;7.90;1.00
17146;DHT22;8688;54.444;18.444;2024-03-23T09:43:10;8.00;1.00
17146;DHT22;8688;54.444;18.444;2024-03-23T09:45:40;8.00;99.90
17146;DHT22;8688;54.444;18.444;2024-03-23T09:48:09;8.00;99.90
17146;DHT22;8688;54.444;18.444;2024-03-23T09:50:37;8.00;99.90
17146;DHT22;8688;54.444;18.444;2024-03-23T09:53:08;8.00;99.90
17146;DHT22;8688;54.444;18.444;2024-03-23T09:55:39;8.00;1.00
17146;DHT22;8688;54.444;18.444;2024-03-23T09:58:06;8.00;1.00
17146;DHT22;8688;54.444;18.444;2024-03-23T10:00:35;8.00;99.90
17146;DHT22;8688;54.444;18.444;2024-03-23T10:03:02;8.10;99.90
17146;DHT22;8688;54.444;18.444;2024-03-23T10:05:32;8.20;1.00
17146;DHT22;8688;54.444;18.444;2024-03-23T10:08:18;8.30;1.00
17146;DHT22;8688;54.444;18.444;2024-03-23T10:10:47;8.40;1.00
17146;DHT22;8688;54.444;18.444;2024-03-23T10:13:24;8.60;1.00
17146;DHT22;8688;54.444;18.444;2024-03-23T10:15:56;8.60;1.00
17146;DHT22;8688;54.444;18.444;2024-03-23T10:18:28;8.70;99.90
17146;DHT22;8688;54.444;18.444;2024-03-23T10:21:09;8.70;99.90
17146;DHT22;8688;54.444;18.444;2024-03-23T10:23:38;8.80;99.90
17146;DHT22;8688;54.444;18.444;2024-03-23T10:26:16;8.80;99.90
17146;DHT22;8688;54.444;18.444;2024-03-23T10:28:57;8.90;99.90
17146;DHT22;8688;54.444;18.444;2024-03-23T10:31:33;9.00;99.90
17146;DHT22;8688;54.444;18.444;2024-03-23T10:34:09;9.00;99.90
17146;DHT22;8688;54.444;18.444;2024-03-23T10:36:40;9.00;99.90
17146;DHT22;8688;54.444;18.444;2024-03-23T10:39:10;9.10;99.90
17146;DHT22;8688;54.444;18.444;2024-03-23T10:41:38;9.10;99.90
17146;DHT22;8688;54.444;18.444;2024-03-23T10:44:07;9.00;99.90
17146;DHT22;8688;54.444;18.444;2024-03-23T10:46:37;8.90;99.90
17146;DHT22;8688;54.444;18.444;2024-03-23T10:49:05;8.90;99.90
17146;DHT22;8688;54.444;18.444;2024-03-23T10:51:33;8.90;99.90
17146;DHT22;8688;54.444;18.444;2024-03-23T10:54:04;8.80;99.90
17146;DHT22;8688;54.444;18.444;2024-03-23T10:56:36;8.80;99.90
17146;DHT22;8688;54.444;18.444;2024-03-23T10:59:07;8.80;99.90
17146;DHT22;8688;54.444;18.444;2024-03-23T11:01:34;8.80;99.90
17146;DHT22;8688;54.444;18.444;2024-03-23T11:04:03;8.70;99.90
17146;DHT22;8688;54.444;18.444;2024-03-23T11:06:38;8.70;99.90
17146;DHT22;8688;54.444;18.444;2024-03-23T11:09:38;8.60;99.90
17146;DHT22;8688;54.444;18.444;2024-03-23T11:12:25;8.50;99.90
17146;DHT22;8688;54.444;18.444;2024-03-23T11:14:54;8.40;99.90
17146;DHT22;8688;54.444;18.444;2024-03-23T11:17:22;8.40;99.90
17146;DHT22;8688;54.444;18.444;2024-03-23T11:19:55;8.40;99.90
17146;DHT22;8688;54.444;18.444;2024-03-23T11:22:43;8.40;99.90
17146;DHT22;8688;54.444;18.444;2024-03-23T11:25:18;8.50;99.90
17146;DHT22;8688;54.444;18.444;2024-03-23T11:27:47;8.80;99.90
17146;DHT22;8688;54.444;18.444;2024-03-23T11:30:18;8.90;99.90
17146;DHT22;8688;54.444;18.444;2024-03-23T11:32:48;8.90;99.90
17146;DHT22;8688;54.444;18.444;2024-03-23T11:35:28;9.00;80.80
17146;DHT22;8688;54.444;18.444;2024-03-23T11:38:16;9.10;6.20
17146;DHT22;8688;54.444;18.444;2024-03-23T11:40:48;9.20;1.00
17146;DHT22;8688;54.444;18.444;2024-03-23T11:43:17;9.20;1.00
17146;DHT22;8688;54.444;18.444;2024-03-23T11:45:46;9.10;1.00
17146;DHT22;8688;54.444;18.444;2024-03-23T11:48:14;9.10;1.00
17146;DHT22;8688;54.444;18.444;2024-03-23T11:50:44;9.20;1.00
17146;DHT22;8688;54.444;18.444;2024-03-23T11:53:19;9.30;1.00
17146;DHT22;8688;54.444;18.444;2024-03-23T11:55:51;9.40;1.00
17146;DHT22;8688;54.444;18.444;2024-03-23T11:58:22;9.50;1.00
17146;DHT22;8688;54.444;18.444;2024-03-23T12:00:51;9.50;1.00
17146;DHT22;8688;54.444;18.444;2024-03-23T12:03:21;9.70;1.00
17146;DHT22;8688;54.444;18.444;2024-03-23T12:05:52;9.80;1.00
17146;DHT22;8688;54.444;18.444;2024-03-23T12:08:23;10.00;1.00
17146;DHT22;8688;54.444;18.444;2024-03-23T12:11:08;10.10;1.00
17146;DHT22;8688;54.444;18.444;2024-03-23T12:13:36;10.00;1.00
17146;DHT22;8688;54.444;18.444;2024-03-23T12:16:11;10.00;1.00
17146;DHT22;8688;54.444;18.444;2024-03-23T12:18:39;9.90;1.00
17146;DHT22;8688;54.444;18.444;2024-03-23T12:21:19;9.80;1.00
17146;DHT22;8688;54.444;18.444;2024-03-23T12:23:49;9.80;1.00
17146;DHT22;8688;54.444;18.444;2024-03-23T12:26:19;9.80;1.00
17146;DHT22;8688;54.444;18.444;2024-03-23T12:28:46;9.90;1.00
17146;DHT22;8688;54.444;18.444;2024-03-23T12:31:15;9.90;1.00
17146;DHT22;8688;54.444;18.444;2024-03-23T12:33:41;10.10;1.00
17146;DHT22;8688;54.444;18.444;2024-03-23T12:36:10;10.30;1.00
17146;DHT22;8688;54.444;18.444;2024-03-23T12:38:39;10.10;1.00
17146;DHT22;8688;54.444;18.444;2024-03-23T12:41:06;10.20;1.00
17146;DHT22;8688;54.444;18.444;2024-03-23T12:43:34;10.20;1.00
17146;DHT22;8688;54.444;18.444;2024-03-23T12:46:10;10.20;1.00
17146;DHT22;8688;54.444;18.444;2024-03-23T12:48:40;10.20;1.00
17146;DHT22;8688;54.444;18.444;2024-03-23T12:51:11;10.20;1.00
17146;DHT22;8688;54.444;18.444;2024-03-23T12:53:43;10.10;1.00
17146;DHT22;8688;54.444;18.444;2024-03-23T12:56:17;10.20;1.00
17146;DHT22;8688;54.444;18.444;2024-03-23T12:58:54;10.10;1.00
17146;DHT22;8688;54.444;18.444;2024-03-23T13:01:23;9.80;1.00
17146;DHT22;8688;54.444;18.444;2024-03-23T13:03:50;9.80;1.00
17146;DHT22;8688;54.444;18.444;2024-03-23T13:06:18;9.90;1.00
17146;DHT22;8688;54.444;18.444;2024-03-23T13:08:45;9.80;1.00
17146;DHT22;8688;54.444;18.444;2024-03-23T13:11:13;9.60;1.00
17146;DHT22;8688;54.444;18.444;2024-03-23T13:13:41;9.40;1.00
17146;DHT22;8688;54.444;18.444;2024-03-23T13:16:11;9.50;1.00
17146;DHT22;8688;54.444;18.444;2024-03-23T13:18:37;9.60;1.00
17146;DHT22;8688;54.444;18.444;2024-03-23T13:21:05;9.60;1.00
17146;DHT22;8688;54.444;18.444;2024-03-23T13:23:31;9.00;1.00
17146;DHT22;8688;54.444;18.444;2024-03-23T13:26:01;8.70;1.00
17146;DHT22;8688;54.444;18.444;2024-03-23T13:28:29;8.50;45.70
17146;DHT22;8688;54.444;18.444;2024-03-23T13:30:56;8.40;99.90
17146;DHT22;8688;54.444;18.444;2024-03-23T13:33:34;8.20;99.90
17146;DHT22;8688;54.444;18.444;2024-03-23T13:36:02;8.10;99.90
17146;DHT22;8688;54.444;18.444;2024-03-23T13:38:32;7.90;1.00
17146;DHT22;8688;54.444;18.444;2024-03-23T13:41:05;7.80;1.00
17146;DHT22;8688;54.444;18.444;2024-03-23T13:43:32;7.70;1.00
17146;DHT22;8688;54.444;18.444;2024-03-23T13:46:00;7.60;1.00
17146;DHT22;8688;54.444;18.444;2024-03-23T13:48:28;7.50;1.00
17146;DHT22;8688;54.444;18.444;2024-03-23T13:51:04;7.40;54.30
17146;DHT22;8688;54.444;18.444;2024-03-23T13:53:31;7.30;59.70
17146;DHT22;8688;54.444;18.444;2024-03-23T13:55:59;7.30;96.60
17146;DHT22;8688;54.444;18.444;2024-03-23T13:58:26;7.40;99.90
17146;DHT22;8688;54.444;18.444;2024-03-23T14:00:55;7.40;99.90
17146;DHT22;8688;54.444;18.444;2024-03-23T14:03:23;7.40;99.90
17146;DHT22;8688;54.444;18.444;2024-03-23T14:05:54;7.20;99.90
17146;DHT22;8688;54.444;18.444;2024-03-23T14:08:25;7.20;1.00
17146;DHT22;8688;54.444;18.444;2024-03-23T14:10:53;7.10;99.90
17146;DHT22;8688;54.444;18.444;2024-03-23T14:13:22;7.20;1.00
17146;DHT22;8688;54.444;18.444;2024-03-23T14:15:53;7.20;1.00
17146;DHT22;8688;54.444;18.444;2024-03-23T14:18:19;7.20;99.90
17146;DHT22;8688;54.444;18.444;2024-03-23T14:20:48;7.10;1.00
17146;DHT22;8688;54.444;18.444;2024-03-23T14:23:15;7.00;1.00
17146;DHT22;8688;54.444;18.444;2024-03-23T14:25:44;6.90;1.00
17146;DHT22;8688;54.444;18.444;2024-03-23T14:28:11;6.90;1.00
17146;DHT22;8688;54.444;18.444;2024-03-23T14:30:41;6.80;1.00
17146;DHT22;8688;54.444;18.444;2024-03-23T14:33:08;6.80;1.00
17146;DHT22;8688;54.444;18.444;2024-03-23T14:35:36;6.80;1.00
17146;DHT22;8688;54.444;18.444;2024-03-23T14:38:04;6.80;1.00
17146;DHT22;8688;54.444;18.444;2024-03-23T14:40:32;6.80;1.00
17146;DHT22;8688;54.444;18.444;2024-03-23T14:43:00;6.80;1.00
17146;DHT22;8688;54.444;18.444;2024-03-23T14:45:28;6.70;1.00
17146;DHT22;8688;54.444;18.444;2024-03-23T14:47:55;6.70;1.00
17146;DHT22;8688;54.444;18.444;2024-03-23T14:50:24;6.80;1.00
17146;DHT22;8688;54.444;18.444;2024-03-23T14:52:53;6.80;1.00
17146;DHT22;8688;54.444;18.444;2024-03-23T14:55:22;6.80;1.00
17146;DHT22;8688;54.444;18.444;2024-03-23T14:57:48;6.80;1.00
17146;DHT22;8688;54.444;18.444;2024-03-23T15:00:21;6.80;1.00
17146;DHT22;8688;54.444;18.444;2024-03-23T15:02:47;6.70;1.00
17146;DHT22;8688;54.444;18.444;2024-03-23T15:05:15;6.70;1.00
17146;DHT22;8688;54.444;18.444;2024-03-23T15:07:42;6.70;1.00
17146;DHT22;8688;54.444;18.444;2024-03-23T15:10:11;6.70;1.00
17146;DHT22;8688;54.444;18.444;2024-03-23T15:12:38;6.70;1.00
17146;DHT22;8688;54.444;18.444;2024-03-23T15:15:07;6.80;1.00
17146;DHT22;8688;54.444;18.444;2024-03-23T15:17:35;6.80;1.00
17146;DHT22;8688;54.444;18.444;2024-03-23T15:20:08;6.70;1.00
17146;DHT22;8688;54.444;18.444;2024-03-23T15:22:34;6.70;1.00
17146;DHT22;8688;54.444;18.444;2024-03-23T15:25:04;6.70;1.00
17146;DHT22;8688;54.444;18.444;2024-03-23T15:27:31;6.70;1.00
17146;DHT22;8688;54.444;18.444;2024-03-23T15:29:59;6.60;1.00
17146;DHT22;8688;54.444;18.444;2024-03-23T15:32:25;6.70;1.00
17146;DHT22;8688;54.444;18.444;2024-03-23T15:34:54;6.70;1.00
17146;DHT22;8688;54.444;18.444;2024-03-23T15:37:21;6.80;99.90
17146;DHT22;8688;54.444;18.444;2024-03-23T15:39:49;6.90;67.80
17146;DHT22;8688;54.444;18.444;2024-03-23T15:42:16;6.90;1.00
17146;DHT22;8688;54.444;18.444;2024-03-23T15:44:44;6.90;1.00
17146;DHT22;8688;54.444;18.444;2024-03-23T15:47:12;6.90;1.00
17146;DHT22;8688;54.444;18.444;2024-03-23T15:49:39;6.80;1.00
17146;DHT22;8688;54.444;18.444;2024-03-23T15:52:08;6.80;1.00
17146;DHT22;8688;54.444;18.444;2024-03-23T15:54:35;6.80;1.00
17146;DHT22;8688;54.444;18.444;2024-03-23T15:57:02;6.80;1.00
17146;DHT22;8688;54.444;18.444;2024-03-23T15:59:30;6.70;1.00
17146;DHT22;8688;54.444;18.444;2024-03-23T16:01:58;6.70;1.00
17146;DHT22;8688;54.444;18.444;2024-03-23T16:04:24;6.70;1.00
17146;DHT22;8688;54.444;18.444;2024-03-23T16:06:52;6.70;1.00
17146;DHT22;8688;54.444;18.444;2024-03-23T16:09:22;6.60;1.00
17146;DHT22;8688;54.444;18.444;2024-03-23T16:11:50;6.60;1.00
17146;DHT22;8688;54.444;18.444;2024-03-23T16:14:17;6.60;1.00
17146;DHT22;8688;54.444;18.444;2024-03-23T16:16:44;6.50;1.00
17146;DHT22;8688;54.444;18.444;2024-03-23T16:19:13;6.50;1.00
17146;DHT22;8688;54.444;18.444;2024-03-23T16:21:41;6.50;1.00
17146;DHT22;8688;54.444;18.444;2024-03-23T16:24:07;6.40;1.00
17146;DHT22;8688;54.444;18.444;2024-03-23T16:26:36;6.40;1.00
17146;DHT22;8688;54.444;18.444;2024-03-23T16:29:03;6.40;1.00
17146;DHT22;8688;54.444;18.444;2024-03-23T16:31:33;6.40;1.00
17146;DHT22;8688;54.444;18.444;2024-03-23T16:33:59;6.40;1.00
17146;DHT22;8688;54.444;18.444;2024-03-23T16:36:27;6.30;1.00
17146;DHT22;8688;54.444;18.444;2024-03-23T16:38:54;6.30;1.00
17146;DHT22;8688;54.444;18.444;2024-03-23T16:41:21;6.40;1.00
17146;DHT22;8688;54.444;18.444;2024-03-23T16:43:49;6.30;1.00
17146;DHT22;8688;54.444;18.444;2024-03-23T16:46:17;6.30;1.00
17146;DHT22;8688;54.444;18.444;2024-03-23T16:48:49;6.30;1.00
17146;DHT22;8688;54.444;18.444;2024-03-23T16:51:17;6.20;1.00
17146;DHT22;8688;54.444;18.444;2024-03-23T16:53:43;6.30;1.00
17146;DHT22;8688;54.444;18.444;2024-03-23T16:56:11;6.20;1.00
17146;DHT22;8688;54.444;18.444;2024-03-23T16:58:39;6.20;1.00
17146;DHT22;8688;54.444;18.444;2024-03-23T17:01:10;6.20;16.40